Time;durP1;ratioP1;P1;durP2;ratioP2;P2;SDS_P1;SDS_P2;PMS_P1;PMS_P2;Temp;Humidity;BMP_temperature;BMP_pressure;BME280_temperature;BME280_humidity;BME280_pressure;Samples;Min_cycle;Max_cycle;Signal;HPM_P1;HPM_P2
2023/02/02 00:01:35;;;;;;;6.53;2.83;;;;;;;;;;5046687;28;20181;-87
2023/02/02 00:04:01;;;;;;;6.70;2.70;;;;;;;;;;5026782;28;20185;-87
2023/02/02 00:06:28;;;;;;;11.63;3.33;;;;;;;;;;5041474;28;20185;-87
2023/02/02 00:08:58;;;;;;;13.70;3.13;;;;;;;;;;5026841;28;20186;-88
2023/02/02 00:11:25;;;;;;;10.53;3.80;;;;;;;;;;5024416;28;20217;-86
2023/02/02 00:13:51;;;;;;;6.57;3.20;;;;;;;;;;5024689;28;21472;-87
2023/02/02 00:16:21;;;;;;;7.57;3.80;;;;;;;;;;5044930;28;20268;-87
2023/02/02 00:18:48;;;;;;;8.07;3.47;;;;;;;;;;5030406;28;20185;-86
2023/02/02 00:21:14;;;;;;;7.30;3.00;;;;;;;;;;5029235;28;20189;-86
2023/02/02 00:23:40;;;;;;;11.27;3.00;;;;;;;;;;5045377;28;20182;-87
2023/02/02 00:26:06;;;;;;;9.50;3.53;;;;;;;;;;5027711;28;20708;-87
2023/02/02 00:28:32;;;;;;;10.33;3.03;;;;;;;;;;5031579;28;20197;-87
2023/02/02 00:30:58;;;;;;;8.50;2.63;;;;;;;;;;5025531;28;20288;-88
2023/02/02 00:33:24;;;;;;;7.73;3.30;;;;;;;;;;5031284;28;20270;-87
2023/02/02 00:35:54;;;;;;;10.40;4.13;;;;;;;;;;5024631;28;20197;-87
2023/02/02 00:38:20;;;;;;;9.37;3.50;;;;;;;;;;5027671;28;20177;-88
2023/02/02 00:40:46;;;;;;;9.47;3.47;;;;;;;;;;5029324;28;20283;-87
2023/02/02 00:43:12;;;;;;;8.20;3.53;;;;;;;;;;5034415;28;20182;-88
2023/02/02 00:45:38;;;;;;;13.63;3.23;;;;;;;;;;5032216;28;20236;-88
2023/02/02 00:48:04;;;;;;;8.17;2.77;;;;;;;;;;5029362;28;20293;-88
2023/02/02 00:50:31;;;;;;;13.87;3.80;;;;;;;;;;5041450;28;20209;-87
2023/02/02 00:52:57;;;;;;;10.73;3.10;;;;;;;;;;5033252;28;20714;-87
2023/02/02 00:55:24;;;;;;;11.90;3.33;;;;;;;;;;5041951;28;20275;-88
2023/02/02 00:57:51;;;;;;;8.80;3.40;;;;;;;;;;5038615;28;20707;-87
2023/02/02 01:00:18;;;;;;;7.80;3.30;;;;;;;;;;5026881;28;20197;-86
2023/02/02 01:02:44;;;;;;;12.73;3.27;;;;;;;;;;5026375;28;20281;-87
2023/02/02 01:05:11;;;;;;;11.77;3.77;;;;;;;;;;5028150;28;20187;-87
2023/02/02 01:07:37;;;;;;;7.40;2.77;;;;;;;;;;5028075;28;20494;-87
2023/02/02 01:10:04;;;;;;;7.93;3.17;;;;;;;;;;5023707;28;20265;-87
2023/02/02 01:12:30;;;;;;;9.83;3.77;;;;;;;;;;5020976;28;20178;-87
2023/02/02 01:14:56;;;;;;;7.87;2.63;;;;;;;;;;5035531;28;20557;-88
2023/02/02 01:17:22;;;;;;;8.93;3.67;;;;;;;;;;5029790;28;20208;-88
2023/02/02 01:19:48;;;;;;;7.17;3.47;;;;;;;;;;5036257;28;20235;-87
2023/02/02 01:22:14;;;;;;;10.03;3.20;;;;;;;;;;5048219;28;20222;-87
2023/02/02 01:24:41;;;;;;;8.80;3.17;;;;;;;;;;5030782;28;20297;-87
2023/02/02 01:27:07;;;;;;;8.57;3.07;;;;;;;;;;5030243;28;20621;-87
2023/02/02 01:29:33;;;;;;;7.67;3.20;;;;;;;;;;5030969;28;20299;-87
2023/02/02 01:31:59;;;;;;;17.47;3.57;;;;;;;;;;5032625;28;20245;-87
2023/02/02 01:34:25;;;;;;;9.00;3.13;;;;;;;;;;5032052;28;20214;-86
2023/02/02 01:36:51;;;;;;;8.87;3.10;;;;;;;;;;5030851;28;20166;-88
2023/02/02 01:39:17;;;;;;;8.80;4.17;;;;;;;;;;5030234;28;20194;-87
2023/02/02 01:41:43;;;;;;;9.67;3.70;;;;;;;;;;5027074;28;20641;-87
2023/02/02 01:44:28;;;;;;;13.90;3.30;;;;;;;;;;5031145;28;20664;-87
2023/02/02 01:46:54;;;;;;;5.50;3.07;;;;;;;;;;5047961;28;20625;-86
2023/02/02 01:49:20;;;;;;;12.50;4.10;;;;;;;;;;5032074;28;20190;-88
2023/02/02 01:51:51;;;;;;;10.17;3.37;;;;;;;;;;5029036;28;20206;-87
2023/02/02 01:54:21;;;;;;;6.40;3.03;;;;;;;;;;5026568;28;20225;-88
2023/02/02 01:56:50;;;;;;;10.77;3.50;;;;;;;;;;5030402;28;20182;-88
2023/02/02 01:59:16;;;;;;;7.60;3.80;;;;;;;;;;5028670;28;20182;-88
2023/02/02 02:01:43;;;;;;;8.43;3.70;;;;;;;;;;5028882;28;20232;-88
2023/02/02 02:04:09;;;;;;;11.60;3.30;;;;;;;;;;5030353;28;20700;-87
2023/02/02 02:06:35;;;;;;;9.23;3.70;;;;;;;;;;5029392;28;20653;-87
2023/02/02 02:09:03;;;;;;;9.63;2.93;;;;;;;;;;5030791;28;20205;-87
2023/02/02 02:11:29;;;;;;;6.93;3.53;;;;;;;;;;5040560;28;20306;-88
2023/02/02 02:16:59;;;;;;;5.50;3.00;;;;;;;;;;5032929;28;20236;-88
2023/02/02 02:26:32;;;;;;;13.00;3.93;;;;;;;;;;5035655;28;20212;-88
2023/02/02 02:26:34;;;;;;;9.17;3.17;;;;;;;;;;5029644;28;20173;-88
2023/02/02 02:29:16;;;;;;;14.97;3.73;;;;;;;;;;5039514;28;20189;-87
2023/02/02 02:32:01;;;;;;;10.20;3.40;;;;;;;;;;5047349;28;22116;-88
2023/02/02 02:34:33;;;;;;;9.27;3.40;;;;;;;;;;5043552;28;20193;-87
2023/02/02 02:37:03;;;;;;;5.97;3.23;;;;;;;;;;5025755;28;20187;-87
2023/02/02 02:39:33;;;;;;;12.10;3.33;;;;;;;;;;5025319;28;20182;-86
2023/02/02 02:42:02;;;;;;;7.20;3.50;;;;;;;;;;5025796;28;20194;-88
2023/02/02 02:44:30;;;;;;;9.47;3.40;;;;;;;;;;5025277;28;20524;-88
2023/02/02 02:46:56;;;;;;;10.43;3.47;;;;;;;;;;5023256;28;20565;-88
2023/02/02 02:49:22;;;;;;;12.07;4.37;;;;;;;;;;5028438;28;20178;-87
2023/02/02 02:51:52;;;;;;;8.20;3.30;;;;;;;;;;5027420;28;20232;-88
2023/02/02 02:54:23;;;;;;;10.83;3.70;;;;;;;;;;5023047;28;20292;-89
2023/02/02 02:57:10;;;;;;;5.93;3.50;;;;;;;;;;5039421;28;20285;-87
2023/02/02 02:59:36;;;;;;;14.00;3.93;;;;;;;;;;5039986;28;20206;-87
2023/02/02 03:02:15;;;;;;;14.43;4.07;;;;;;;;;;5028438;28;20189;-88
2023/02/02 03:05:00;;;;;;;9.23;4.23;;;;;;;;;;5029028;28;20644;-87
2023/02/02 03:07:28;;;;;;;8.67;4.10;;;;;;;;;;5023849;28;20280;-88
2023/02/02 03:09:56;;;;;;;8.03;3.47;;;;;;;;;;5038473;28;20634;-88
2023/02/02 03:12:22;;;;;;;9.90;3.83;;;;;;;;;;5021923;28;20188;-87
2023/02/02 03:14:48;;;;;;;8.77;3.40;;;;;;;;;;5027666;28;20178;-88
2023/02/02 03:17:14;;;;;;;6.73;3.87;;;;;;;;;;5043405;28;20185;-88
2023/02/02 03:19:40;;;;;;;9.87;3.53;;;;;;;;;;5029633;28;20186;-87
2023/02/02 03:22:06;;;;;;;9.17;3.30;;;;;;;;;;5024948;28;20343;-88
2023/02/02 03:24:32;;;;;;;9.83;3.67;;;;;;;;;;5026581;28;20186;-87
2023/02/02 03:26:59;;;;;;;6.73;2.60;;;;;;;;;;5024299;28;20182;-87
2023/02/02 03:29:25;;;;;;;11.97;3.63;;;;;;;;;;5022407;28;20174;-87
2023/02/02 03:31:51;;;;;;;10.70;3.17;;;;;;;;;;5042833;28;20209;-88
2023/02/02 03:34:17;;;;;;;8.40;3.70;;;;;;;;;;5040229;28;20280;-87
2023/02/02 03:36:43;;;;;;;10.87;3.87;;;;;;;;;;5027104;28;20244;-87
2023/02/02 03:39:09;;;;;;;10.20;4.20;;;;;;;;;;5030138;28;20212;-89
2023/02/02 03:41:35;;;;;;;10.87;3.70;;;;;;;;;;5023383;28;20196;-88
2023/02/02 03:44:01;;;;;;;8.73;3.47;;;;;;;;;;5039785;28;20217;-88
2023/02/02 03:46:27;;;;;;;8.17;3.60;;;;;;;;;;5025827;28;20268;-88
2023/02/02 03:48:53;;;;;;;8.90;3.77;;;;;;;;;;5039631;28;20198;-87
2023/02/02 03:51:19;;;;;;;10.20;4.00;;;;;;;;;;5038069;28;20205;-88
2023/02/02 03:53:48;;;;;;;8.73;3.83;;;;;;;;;;5043036;28;20513;-88
2023/02/02 03:56:14;;;;;;;10.97;4.07;;;;;;;;;;5024223;28;20217;-88
2023/02/02 03:58:40;;;;;;;7.93;3.80;;;;;;;;;;5022746;28;20182;-87
2023/02/02 04:01:08;;;;;;;10.03;4.10;;;;;;;;;;5024201;28;20304;-88
2023/02/02 04:03:34;;;;;;;6.37;3.40;;;;;;;;;;5026211;28;20186;-88
2023/02/02 04:06:00;;;;;;;12.03;4.17;;;;;;;;;;5040356;28;20213;-87
2023/02/02 04:08:27;;;;;;;10.73;4.30;;;;;;;;;;5028122;28;20177;-88
2023/02/02 04:10:53;;;;;;;8.83;3.83;;;;;;;;;;5027128;28;20210;-87
2023/02/02 04:13:19;;;;;;;9.57;3.93;;;;;;;;;;5025812;28;20508;-87
2023/02/02 04:15:45;;;;;;;11.13;3.83;;;;;;;;;;5028318;28;20265;-88
2023/02/02 04:18:11;;;;;;;7.67;4.87;;;;;;;;;;5033948;28;20189;-88
2023/02/02 04:20:37;;;;;;;9.87;4.07;;;;;;;;;;5024039;28;20190;-87
2023/02/02 04:23:03;;;;;;;11.13;3.83;;;;;;;;;;5040295;28;20613;-88
2023/02/02 04:25:30;;;;;;;9.80;3.90;;;;;;;;;;5039875;28;20190;-88
2023/02/02 04:27:56;;;;;;;11.43;4.20;;;;;;;;;;5033366;28;20709;-87
2023/02/02 04:30:22;;;;;;;11.27;4.03;;;;;;;;;;5016844;28;20206;-87
2023/02/02 04:32:48;;;;;;;9.87;3.47;;;;;;;;;;5017876;28;20189;-88
2023/02/02 04:35:14;;;;;;;11.40;4.07;;;;;;;;;;5034547;28;20661;-88
2023/02/02 04:37:40;;;;;;;11.10;5.40;;;;;;;;;;5015417;28;20645;-89
2023/02/02 04:40:06;;;;;;;13.10;4.60;;;;;;;;;;5036866;28;20209;-87
2023/02/02 04:42:33;;;;;;;8.17;4.03;;;;;;;;;;5044655;28;20191;-89
2023/02/02 04:44:59;;;;;;;12.33;4.63;;;;;;;;;;5031372;28;20626;-88
2023/02/02 04:47:25;;;;;;;8.87;4.17;;;;;;;;;;5041714;28;20181;-89
2023/02/02 04:49:51;;;;;;;12.97;5.03;;;;;;;;;;5036657;28;20196;-88
2023/02/02 04:52:17;;;;;;;9.80;3.93;;;;;;;;;;5020494;28;20202;-87
2023/02/02 04:54:43;;;;;;;11.17;4.03;;;;;;;;;;5019881;28;20249;-88
2023/02/02 04:57:09;;;;;;;7.57;3.40;;;;;;;;;;5025947;28;20185;-88
2023/02/02 04:59:36;;;;;;;13.50;4.70;;;;;;;;;;5024136;28;20202;-88
2023/02/02 05:02:02;;;;;;;15.47;5.33;;;;;;;;;;5026442;28;20186;-87
2023/02/02 05:04:28;;;;;;;13.30;4.40;;;;;;;;;;5024276;28;20188;-88
2023/02/02 05:06:54;;;;;;;13.13;4.60;;;;;;;;;;5021753;28;20178;-88
2023/02/02 05:09:20;;;;;;;12.43;4.30;;;;;;;;;;5043073;28;20307;-88
2023/02/02 05:11:46;;;;;;;10.93;5.47;;;;;;;;;;5022428;28;20259;-87
2023/02/02 05:14:13;;;;;;;12.43;5.07;;;;;;;;;;5029379;28;20185;-87
2023/02/02 05:16:39;;;;;;;13.77;4.60;;;;;;;;;;5034668;28;20680;-88
2023/02/02 05:19:05;;;;;;;7.80;3.43;;;;;;;;;;5034684;28;20713;-87
2023/02/02 05:21:31;;;;;;;12.20;4.13;;;;;;;;;;5041381;28;20187;-87
2023/02/02 05:23:58;;;;;;;13.67;4.20;;;;;;;;;;5027160;28;20253;-89
2023/02/02 05:26:25;;;;;;;13.90;4.57;;;;;;;;;;5020143;28;20224;-87
2023/02/02 05:28:51;;;;;;;12.57;3.80;;;;;;;;;;5021170;28;20186;-88
2023/02/02 05:31:18;;;;;;;13.63;4.63;;;;;;;;;;5040263;28;20228;-88
2023/02/02 05:33:44;;;;;;;12.53;4.50;;;;;;;;;;5021523;28;20592;-87
2023/02/02 05:36:10;;;;;;;7.10;4.13;;;;;;;;;;5037008;28;20205;-88
2023/02/02 05:38:36;;;;;;;9.63;4.50;;;;;;;;;;5043770;28;20322;-88
2023/02/02 05:41:02;;;;;;;11.60;5.07;;;;;;;;;;5026473;28;20872;-88
2023/02/02 05:43:29;;;;;;;12.53;5.10;;;;;;;;;;5024606;28;21464;-88
2023/02/02 05:45:56;;;;;;;8.17;4.70;;;;;;;;;;5026563;28;20216;-89
2023/02/02 05:48:22;;;;;;;15.53;4.90;;;;;;;;;;5026323;28;20189;-90
2023/02/02 05:50:54;;;;;;;9.70;5.27;;;;;;;;;;5026522;28;20205;-91
2023/02/02 05:53:20;;;;;;;11.27;5.07;;;;;;;;;;5039023;28;20669;-92
2023/02/02 05:55:46;;;;;;;12.70;4.53;;;;;;;;;;5025731;28;20225;-91
2023/02/02 05:58:12;;;;;;;8.63;4.43;;;;;;;;;;5028240;28;20587;-91
2023/02/02 06:00:39;;;;;;;12.93;4.57;;;;;;;;;;5043001;28;20220;-87
2023/02/02 06:03:05;;;;;;;10.60;4.57;;;;;;;;;;5041757;28;20183;-88
2023/02/02 06:05:31;;;;;;;9.30;4.67;;;;;;;;;;5047814;28;20186;-89
2023/02/02 06:07:57;;;;;;;10.60;4.23;;;;;;;;;;5030711;28;20216;-88
2023/02/02 06:10:23;;;;;;;14.20;5.07;;;;;;;;;;5030322;28;21002;-88
2023/02/02 06:12:49;;;;;;;10.30;4.37;;;;;;;;;;5027317;28;20197;-90
2023/02/02 06:15:15;;;;;;;14.90;5.33;;;;;;;;;;5044468;28;20244;-89
2023/02/02 06:17:41;;;;;;;10.27;4.30;;;;;;;;;;5031502;28;20182;-90
2023/02/02 06:20:07;;;;;;;8.97;4.43;;;;;;;;;;5044086;28;20200;-90
2023/02/02 06:22:33;;;;;;;9.27;4.23;;;;;;;;;;5047826;28;20217;-91
2023/02/02 06:24:59;;;;;;;8.63;4.03;;;;;;;;;;5026641;28;20607;-86
2023/02/02 06:27:28;;;;;;;9.20;4.87;;;;;;;;;;5032716;28;20221;-89
2023/02/02 06:29:54;;;;;;;9.03;4.77;;;;;;;;;;5029244;28;20201;-83
2023/02/02 06:32:20;;;;;;;10.70;4.93;;;;;;;;;;5023299;28;20175;-86
2023/02/02 06:34:46;;;;;;;9.50;4.97;;;;;;;;;;5030666;28;20344;-86
2023/02/02 06:37:12;;;;;;;13.87;4.40;;;;;;;;;;5026480;28;20211;-86
2023/02/02 06:39:38;;;;;;;8.97;4.17;;;;;;;;;;5030549;28;20182;-86
2023/02/02 06:42:04;;;;;;;12.07;3.87;;;;;;;;;;5025784;28;20205;-86
2023/02/02 06:44:31;;;;;;;8.37;4.10;;;;;;;;;;5029917;28;20182;-85
2023/02/02 06:46:57;;;;;;;13.10;4.47;;;;;;;;;;5029002;28;20185;-89
2023/02/02 06:49:23;;;;;;;12.57;4.50;;;;;;;;;;5029769;28;20179;-86
2023/02/02 06:51:49;;;;;;;5.93;3.77;;;;;;;;;;5033142;28;20262;-86
2023/02/02 06:54:15;;;;;;;10.47;4.07;;;;;;;;;;5034957;28;20531;-84
2023/02/02 06:56:41;;;;;;;8.20;3.90;;;;;;;;;;5027694;28;20182;-85
2023/02/02 06:59:07;;;;;;;9.70;4.07;;;;;;;;;;5021004;28;20178;-87
2023/02/02 07:01:33;;;;;;;12.63;4.77;;;;;;;;;;5041695;28;20201;-88
2023/02/02 07:03:59;;;;;;;16.10;4.87;;;;;;;;;;5028552;28;20186;-89
2023/02/02 07:06:28;;;;;;;10.37;4.33;;;;;;;;;;5020431;28;20269;-87
2023/02/02 07:08:55;;;;;;;14.80;4.60;;;;;;;;;;5043417;28;20608;-88
2023/02/02 07:11:21;;;;;;;12.20;4.80;;;;;;;;;;5038811;28;20228;-86
2023/02/02 07:13:48;;;;;;;8.53;4.50;;;;;;;;;;5025927;28;20594;-87
2023/02/02 07:16:15;;;;;;;9.00;4.80;;;;;;;;;;5025172;28;20186;-86
2023/02/02 07:18:42;;;;;;;7.50;4.00;;;;;;;;;;5043130;28;20617;-85
2023/02/02 07:21:09;;;;;;;11.03;4.90;;;;;;;;;;5030722;28;20189;-85
2023/02/02 07:23:35;;;;;;;12.40;4.73;;;;;;;;;;5046121;28;20280;-85
2023/02/02 07:26:05;;;;;;;7.53;3.77;;;;;;;;;;5024094;28;20677;-85
2023/02/02 07:28:32;;;;;;;9.03;5.17;;;;;;;;;;5023824;28;20189;-86
2023/02/02 07:30:58;;;;;;;17.80;5.17;;;;;;;;;;5027531;28;20209;-84
2023/02/02 07:33:24;;;;;;;9.97;5.03;;;;;;;;;;5029369;28;20566;-85
2023/02/02 07:35:51;;;;;;;17.37;6.73;;;;;;;;;;5031522;28;20181;-83
2023/02/02 07:38:17;;;;;;;14.87;5.63;;;;;;;;;;5023281;28;20182;-87
2023/02/02 07:40:43;;;;;;;8.80;5.03;;;;;;;;;;5025690;28;20208;-85
2023/02/02 07:43:09;;;;;;;13.73;5.27;;;;;;;;;;5038947;28;20196;-84
2023/02/02 07:45:35;;;;;;;13.07;5.63;;;;;;;;;;5029301;28;20524;-86
2023/02/02 07:48:01;;;;;;;10.40;5.13;;;;;;;;;;5030443;28;20609;-84
2023/02/02 07:50:29;;;;;;;13.57;5.50;;;;;;;;;;5041045;28;20238;-87
2023/02/02 07:52:55;;;;;;;14.17;5.50;;;;;;;;;;5028569;28;20204;-84
2023/02/02 07:55:21;;;;;;;12.07;6.20;;;;;;;;;;5025627;28;20221;-87
2023/02/02 07:57:47;;;;;;;9.07;5.17;;;;;;;;;;5028502;28;20552;-86
2023/02/02 08:00:13;;;;;;;11.53;4.57;;;;;;;;;;5026972;28;20231;-86
2023/02/02 08:02:39;;;;;;;11.93;4.20;;;;;;;;;;5043909;28;20190;-86
2023/02/02 08:05:06;;;;;;;11.57;5.43;;;;;;;;;;5031619;28;20185;-86
2023/02/02 08:07:35;;;;;;;11.03;5.20;;;;;;;;;;5032126;28;20182;-85
2023/02/02 08:10:01;;;;;;;9.50;4.50;;;;;;;;;;5029521;28;20667;-85
2023/02/02 08:12:27;;;;;;;8.90;4.47;;;;;;;;;;5046743;28;20201;-85
2023/02/02 08:14:54;;;;;;;9.77;4.53;;;;;;;;;;5019842;28;20178;-86
2023/02/02 08:17:21;;;;;;;8.77;5.07;;;;;;;;;;5024070;28;20691;-88
2023/02/02 08:19:48;;;;;;;6.70;4.03;;;;;;;;;;5039994;28;20315;-85
2023/02/02 08:22:14;;;;;;;13.37;4.93;;;;;;;;;;5018702;28;20185;-86
2023/02/02 08:24:41;;;;;;;8.33;4.53;;;;;;;;;;5040850;28;20241;-85
2023/02/02 08:27:07;;;;;;;9.93;4.30;;;;;;;;;;5033469;28;20201;-89
2023/02/02 08:29:34;;;;;;;11.07;4.70;;;;;;;;;;5038486;28;20585;-87
2023/02/02 08:32:00;;;;;;;11.83;5.03;;;;;;;;;;5048595;28;20288;-86
2023/02/02 08:34:27;;;;;;;9.23;4.50;;;;;;;;;;5026318;28;20276;-86
2023/02/02 08:36:53;;;;;;;13.60;4.50;;;;;;;;;;5025766;28;20178;-86
2023/02/02 08:39:19;;;;;;;6.87;4.20;;;;;;;;;;5025259;28;20182;-88
2023/02/02 08:41:45;;;;;;;8.33;4.63;;;;;;;;;;5039742;28;20183;-86
2023/02/02 08:44:15;;;;;;;13.40;5.03;;;;;;;;;;5026914;28;20190;-86
2023/02/02 08:46:41;;;;;;;12.47;4.27;;;;;;;;;;5024709;28;20189;-87
2023/02/02 08:49:11;;;;;;;11.70;4.70;;;;;;;;;;5026010;28;20641;-86
2023/02/02 08:51:37;;;;;;;10.57;4.40;;;;;;;;;;5029154;28;20273;-88
2023/02/02 08:54:03;;;;;;;15.23;4.47;;;;;;;;;;5027160;28;20529;-83
2023/02/02 08:56:29;;;;;;;9.87;4.03;;;;;;;;;;5024833;28;20517;-85
2023/02/02 08:58:57;;;;;;;9.27;4.53;;;;;;;;;;5022677;28;20541;-85
2023/02/02 09:01:23;;;;;;;9.93;4.60;;;;;;;;;;5025722;28;20645;-84
2023/02/02 09:03:52;;;;;;;6.93;4.67;;;;;;;;;;5025841;28;20224;-84
2023/02/02 09:06:19;;;;;;;10.80;4.37;;;;;;;;;;5028993;28;20182;-85
2023/02/02 09:08:45;;;;;;;11.93;5.43;;;;;;;;;;5021633;28;20257;-84
2023/02/02 09:11:16;;;;;;;10.00;4.50;;;;;;;;;;5020589;28;20202;-83
2023/02/02 09:13:44;;;;;;;15.67;5.00;;;;;;;;;;5039008;28;20250;-83
2023/02/02 09:16:11;;;;;;;10.77;4.73;;;;;;;;;;5037740;28;20276;-85
2023/02/02 09:18:37;;;;;;;17.20;4.73;;;;;;;;;;5044506;28;20613;-84
2023/02/02 09:21:05;;;;;;;11.47;4.97;;;;;;;;;;5022121;28;20263;-83
2023/02/02 09:23:35;;;;;;;9.60;4.40;;;;;;;;;;5019817;28;20189;-84
2023/02/02 09:26:13;;;;;;;14.97;5.43;;;;;;;;;;5040206;28;20667;-84
2023/02/02 09:28:40;;;;;;;14.07;4.57;;;;;;;;;;5027441;28;20190;-85
2023/02/02 09:31:07;;;;;;;10.37;4.90;;;;;;;;;;5028262;28;20206;-86
2023/02/02 09:33:33;;;;;;;10.20;4.73;;;;;;;;;;5041311;28;20618;-85
2023/02/02 09:36:13;;;;;;;10.50;4.53;;;;;;;;;;5042789;28;20733;-85
2023/02/02 09:38:39;;;;;;;8.77;4.77;;;;;;;;;;5039546;28;20185;-86
2023/02/02 09:41:20;;;;;;;11.80;4.50;;;;;;;;;;5039567;28;20276;-85
2023/02/02 09:44:16;;;;;;;8.10;4.87;;;;;;;;;;5043918;28;20182;-85
2023/02/02 09:46:42;;;;;;;14.83;4.77;;;;;;;;;;4960486;28;20506;-85
2023/02/02 09:49:10;;;;;;;9.23;4.80;;;;;;;;;;5026108;28;20198;-85
2023/02/02 09:51:40;;;;;;;11.60;4.93;;;;;;;;;;5032160;28;20310;-86
2023/02/02 09:54:20;;;;;;;8.67;5.47;;;;;;;;;;5044356;28;20205;-86
2023/02/02 09:56:53;;;;;;;9.47;3.97;;;;;;;;;;5026588;28;20217;-84
2023/02/02 09:59:21;;;;;;;17.97;5.73;;;;;;;;;;5043297;28;20637;-86
2023/02/02 10:01:49;;;;;;;8.27;4.50;;;;;;;;;;5044456;28;20181;-85
2023/02/02 10:04:21;;;;;;;11.73;4.90;;;;;;;;;;5030993;28;20196;-87
2023/02/02 10:06:48;;;;;;;8.53;4.43;;;;;;;;;;5042085;28;20182;-85
2023/02/02 10:09:38;;;;;;;10.73;4.50;;;;;;;;;;5044333;28;20178;-86
2023/02/02 10:12:17;;;;;;;7.23;4.13;;;;;;;;;;5030864;28;20209;-85
2023/02/02 10:14:51;;;;;;;13.83;5.03;;;;;;;;;;5042958;28;20202;-86
2023/02/02 10:17:20;;;;;;;8.20;4.20;;;;;;;;;;5027186;28;20182;-86
2023/02/02 10:19:48;;;;;;;11.90;4.23;;;;;;;;;;5040021;28;20692;-85
2023/02/02 10:22:18;;;;;;;11.23;4.90;;;;;;;;;;5043164;28;20237;-86
2023/02/02 10:24:44;;;;;;;6.80;4.43;;;;;;;;;;5037486;28;20541;-86
2023/02/02 10:27:14;;;;;;;8.23;5.20;;;;;;;;;;5044459;28;20221;-88
2023/02/02 10:29:43;;;;;;;10.10;5.70;;;;;;;;;;5045722;28;20215;-86
2023/02/02 10:32:21;;;;;;;6.93;4.53;;;;;;;;;;5043120;28;20308;-85
2023/02/02 10:34:56;;;;;;;14.90;5.57;;;;;;;;;;5023196;28;20181;-85
2023/02/02 10:37:33;;;;;;;10.50;5.23;;;;;;;;;;5029613;28;20193;-85
2023/02/02 10:40:19;;;;;;;11.80;5.03;;;;;;;;;;5023489;28;20214;-84
2023/02/02 10:45:41;;;;;;;10.33;4.80;;;;;;;;;;5028367;28;20181;-85
2023/02/02 10:48:14;;;;;;;14.47;5.30;;;;;;;;;;5030665;28;20336;-87
2023/02/02 10:50:47;;;;;;;15.73;5.90;;;;;;;;;;5019847;28;20221;-87
2023/02/02 10:53:14;;;;;;;11.47;5.37;;;;;;;;;;5025298;28;20189;-85
2023/02/02 10:55:44;;;;;;;9.83;5.10;;;;;;;;;;5044880;28;20408;-85
2023/02/02 10:58:10;;;;;;;12.47;5.30;;;;;;;;;;5024513;28;20183;-86
2023/02/02 11:00:46;;;;;;;10.73;5.10;;;;;;;;;;5027524;28;20190;-86
2023/02/02 11:03:14;;;;;;;10.77;5.37;;;;;;;;;;5021610;28;20186;-86
2023/02/02 11:08:42;;;;;;;7.63;4.97;;;;;;;;;;5024343;28;20247;-85
2023/02/02 11:11:10;;;;;;;12.40;5.57;;;;;;;;;;5042069;28;20508;-86
2023/02/02 11:13:40;;;;;;;13.70;5.10;;;;;;;;;;5019718;28;20188;-86
2023/02/02 11:16:12;;;;;;;10.70;6.33;;;;;;;;;;5039145;28;20507;-86
2023/02/02 11:18:38;;;;;;;11.27;5.17;;;;;;;;;;5028735;28;20281;-85
2023/02/02 11:21:15;;;;;;;7.43;5.00;;;;;;;;;;5040502;28;20185;-86
2023/02/02 11:23:50;;;;;;;7.53;5.00;;;;;;;;;;5043408;28;20542;-88
2023/02/02 11:26:16;;;;;;;7.33;4.20;;;;;;;;;;5042441;28;20184;-88
2023/02/02 11:28:42;;;;;;;14.50;5.20;;;;;;;;;;5028089;28;20740;-86
2023/02/02 11:31:09;;;;;;;9.47;5.37;;;;;;;;;;5030342;28;20241;-87
2023/02/02 11:33:35;;;;;;;11.97;5.63;;;;;;;;;;5037686;28;20523;-85
2023/02/02 11:36:03;;;;;;;9.63;5.80;;;;;;;;;;5030135;28;20202;-86
2023/02/02 11:38:29;;;;;;;6.97;4.67;;;;;;;;;;5040446;28;20209;-85
2023/02/02 11:41:03;;;;;;;8.00;4.60;;;;;;;;;;5022846;28;20276;-86
2023/02/02 11:43:40;;;;;;;8.67;5.17;;;;;;;;;;5035827;28;20230;-85
2023/02/02 11:46:15;;;;;;;9.87;5.40;;;;;;;;;;5028917;28;20189;-86
2023/02/02 11:48:47;;;;;;;9.97;4.60;;;;;;;;;;5027752;28;20187;-86
2023/02/02 11:51:21;;;;;;;7.63;4.40;;;;;;;;;;5029568;28;20221;-86
2023/02/02 11:53:48;;;;;;;9.20;5.43;;;;;;;;;;5040796;28;20541;-86
2023/02/02 11:56:19;;;;;;;8.03;3.93;;;;;;;;;;5029623;28;20237;-86
2023/02/02 11:58:49;;;;;;;9.27;4.47;;;;;;;;;;5040918;28;20211;-85
2023/02/02 12:01:23;;;;;;;9.90;4.23;;;;;;;;;;5027120;28;20804;-85
2023/02/02 12:03:50;;;;;;;6.87;4.40;;;;;;;;;;5042577;28;20196;-85
2023/02/02 12:06:20;;;;;;;7.97;4.43;;;;;;;;;;5025917;28;20185;-87
2023/02/02 12:08:47;;;;;;;6.60;4.57;;;;;;;;;;5044472;28;20178;-84
2023/02/02 12:11:23;;;;;;;7.60;4.63;;;;;;;;;;5022978;28;20267;-87
2023/02/02 12:13:57;;;;;;;15.97;5.37;;;;;;;;;;5023451;28;20200;-85
2023/02/02 12:16:32;;;;;;;16.97;5.80;;;;;;;;;;5034971;28;20654;-85
2023/02/02 12:19:04;;;;;;;12.93;4.80;;;;;;;;;;5035279;28;20525;-85
2023/02/02 12:21:30;;;;;;;10.03;5.17;;;;;;;;;;5040727;28;20183;-86
2023/02/02 12:24:14;;;;;;;10.73;4.60;;;;;;;;;;5021857;28;20185;-86
2023/02/02 12:26:46;;;;;;;11.40;5.40;;;;;;;;;;5039706;28;20657;-85
2023/02/02 12:29:13;;;;;;;9.73;5.13;;;;;;;;;;5030761;28;20189;-86
2023/02/02 12:32:18;;;;;;;9.17;5.07;;;;;;;;;;5040286;28;20747;-87
2023/02/02 12:34:46;;;;;;;10.13;5.40;;;;;;;;;;4967647;28;20174;-86
2023/02/02 12:37:35;;;;;;;13.07;5.33;;;;;;;;;;4965813;28;20180;-87
2023/02/02 12:40:21;;;;;;;10.93;5.33;;;;;;;;;;4984052;28;20213;-85
2023/02/02 12:42:47;;;;;;;7.97;5.20;;;;;;;;;;5041033;28;20225;-86
2023/02/02 12:45:20;;;;;;;16.93;4.77;;;;;;;;;;5025363;28;20201;-85
2023/02/02 12:48:04;;;;;;;8.30;5.27;;;;;;;;;;5039010;28;20178;-86
2023/02/02 12:50:35;;;;;;;9.00;4.67;;;;;;;;;;5021647;28;20205;-85
2023/02/02 12:53:15;;;;;;;7.73;4.50;;;;;;;;;;5030020;28;20178;-85
2023/02/02 12:55:41;;;;;;;12.43;4.73;;;;;;;;;;5028272;28;20223;-84
2023/02/02 12:58:26;;;;;;;8.90;4.30;;;;;;;;;;5030476;28;20191;-85
2023/02/02 13:01:11;;;;;;;8.80;4.27;;;;;;;;;;5025401;28;20232;-86
2023/02/02 13:04:01;;;;;;;10.40;4.23;;;;;;;;;;5024943;28;20199;-86
2023/02/02 13:06:27;;;;;;;6.23;4.30;;;;;;;;;;5015870;28;20338;-85
2023/02/02 13:09:08;;;;;;;8.77;4.30;;;;;;;;;;5015235;28;20305;-86
2023/02/02 13:11:44;;;;;;;8.53;4.40;;;;;;;;;;5025594;28;20197;-88
2023/02/02 13:14:14;;;;;;;8.63;4.40;;;;;;;;;;5040786;28;20173;-86
2023/02/02 13:16:47;;;;;;;9.20;4.80;;;;;;;;;;5028412;28;20201;-87
2023/02/02 13:19:17;;;;;;;6.63;4.17;;;;;;;;;;5032364;28;20718;-85
2023/02/02 13:21:44;;;;;;;8.03;4.70;;;;;;;;;;5046352;28;20277;-86
2023/02/02 13:24:13;;;;;;;10.67;4.53;;;;;;;;;;5030078;28;20634;-86
2023/02/02 13:26:41;;;;;;;8.50;4.10;;;;;;;;;;5043432;28;20301;-88
2023/02/02 13:29:10;;;;;;;13.77;4.37;;;;;;;;;;5027931;28;20186;-85
2023/02/02 13:31:59;;;;;;;10.13;4.37;;;;;;;;;;5047037;28;20260;-85
2023/02/02 13:34:40;;;;;;;11.67;4.73;;;;;;;;;;5028800;28;20286;-86
2023/02/02 13:37:27;;;;;;;6.47;4.73;;;;;;;;;;5028006;28;20688;-86
2023/02/02 13:39:55;;;;;;;8.90;4.50;;;;;;;;;;5026111;28;20240;-86
2023/02/02 13:42:42;;;;;;;9.73;4.20;;;;;;;;;;5025040;28;20641;-86
2023/02/02 13:45:34;;;;;;;11.13;4.17;;;;;;;;;;5031487;28;20539;-86
2023/02/02 13:48:21;;;;;;;10.60;4.00;;;;;;;;;;5026880;28;20202;-86
2023/02/02 13:50:56;;;;;;;10.00;4.57;;;;;;;;;;5019720;28;20225;-86
2023/02/02 13:53:25;;;;;;;9.67;4.43;;;;;;;;;;5025766;28;20284;-85
2023/02/02 13:56:03;;;;;;;8.07;4.37;;;;;;;;;;5024943;28;20534;-86
2023/02/02 13:58:35;;;;;;;6.53;4.07;;;;;;;;;;5024512;28;20192;-85
2023/02/02 14:01:07;;;;;;;9.70;4.60;;;;;;;;;;5042275;28;20182;-85
2023/02/02 14:03:53;;;;;;;6.07;4.23;;;;;;;;;;5032403;28;20178;-85
2023/02/02 14:06:20;;;;;;;8.43;3.73;;;;;;;;;;5046965;28;20186;-85
2023/02/02 14:08:57;;;;;;;9.43;5.47;;;;;;;;;;5026418;28;20207;-86
2023/02/02 14:11:29;;;;;;;8.23;5.07;;;;;;;;;;5028977;28;20197;-85
2023/02/02 14:16:45;;;;;;;10.30;4.93;;;;;;;;;;5026470;28;20338;-85
2023/02/02 14:19:15;;;;;;;10.57;5.27;;;;;;;;;;5045480;28;20201;-85
2023/02/02 14:21:41;;;;;;;11.37;4.83;;;;;;;;;;5028538;28;20625;-86
2023/02/02 14:24:26;;;;;;;9.77;5.03;;;;;;;;;;5041132;28;20195;-86
2023/02/02 14:26:51;;;;;;;9.60;4.87;;;;;;;;;;5022252;28;20665;-85
2023/02/02 14:29:35;;;;;;;9.13;6.10;;;;;;;;;;5028083;28;20312;-85
2023/02/02 14:32:01;;;;;;;8.90;5.03;;;;;;;;;;5025256;28;20249;-85
2023/02/02 14:34:40;;;;;;;11.07;5.33;;;;;;;;;;5025060;28;20208;-87
2023/02/02 14:37:19;;;;;;;10.63;5.63;;;;;;;;;;5045468;28;20182;-85
2023/02/02 14:40:03;;;;;;;10.17;5.00;;;;;;;;;;5041712;28;20186;-86
2023/02/02 14:45:32;;;;;;;25.07;5.77;;;;;;;;;;5023337;28;20548;-85
2023/02/02 14:48:00;;;;;;;11.70;5.37;;;;;;;;;;5038651;28;20302;-85
2023/02/02 14:50:34;;;;;;;8.47;5.33;;;;;;;;;;5026405;28;20198;-85
2023/02/02 14:53:03;;;;;;;10.70;5.70;;;;;;;;;;5038915;28;20190;-85
2023/02/02 14:55:29;;;;;;;9.17;5.47;;;;;;;;;;5042742;28;20330;-87
2023/02/02 14:58:00;;;;;;;10.80;6.07;;;;;;;;;;5025222;28;20547;-85
2023/02/02 15:00:28;;;;;;;13.30;6.60;;;;;;;;;;5042235;28;20190;-85
2023/02/02 15:02:55;;;;;;;12.73;5.87;;;;;;;;;;5040321;28;20205;-86
2023/02/02 15:05:33;;;;;;;9.87;6.40;;;;;;;;;;5026549;28;20186;-85
2023/02/02 15:08:14;;;;;;;14.97;6.77;;;;;;;;;;5024709;28;20194;-85